aviador You're here:

WSSS Decoded Metar

SINGAPORE in SINGAPORE
Report Time2017-12-15 17:30:00
UTC Time2017-12-15 17:55:51
Flight Rules vfr VFR
Wind020° at 03 kt
W.Decomp.*RWY 02: 3.0 kt HW -0 kt LCW
W.Rank020° ranks 12
Current wind is below 020° avg. (3.8)
Visibility9999 m
Phenomena:Sand
Clouds:Few 016 Hf
Broken 300 Hf
Expected CloudBase > 400 ft AGL from Temp-Dew spread
Ceiling30,000 ft
Temp26°C (ISA +11)
Dew Point25°C (94% RH)
QNH1012 hPa
Density Alt1,785 ft
Elevation52 ft
Report Wrong Elevation
Raw Report
METAR WSSS 151730Z 02003KT 300V050 9999 FEW016 BKN300 26/25 Q1012
NOSIG=####018000077####
SACN94 CWAO 262300 RRZ
WRV SA 2300 AUTO8 M M M M/M/M/0000/M/ M MMMM=

Extra information for WSSS:More info

Metar Taf Metar & Taf Last 4 Metars F.Rules Stats Wind Profile Meteogram Temp Stats Airport Information Weather charts Add Link Nearby VenuesMetar ALERT Operation Metar Decoded Social comments